Time;durP1;ratioP1;P1;durP2;ratioP2;P2;SDS_P1;SDS_P2;PMS_P1;PMS_P2;Temp;Humidity;BMP_temperature;BMP_pressure;BME280_temperature;BME280_humidity;BME280_pressure;Samples;Min_cycle;Max_cycle;Signal;HPM_P1;HPM_P2
2023/12/08 00:00:25;;;;;;;36.92;18.83;;;1.30;99.90;;;;;;4978584;28;20042;-85
2023/12/08 00:02:50;;;;;;;34.60;17.77;;;0.00;99.90;;;;;;4979261;28;20077;-85
2023/12/08 00:05:16;;;;;;;32.08;17.05;;;1.20;99.90;;;;;;4977441;28;20046;-85
2023/12/08 00:07:42;;;;;;;32.90;17.77;;;1.40;99.90;;;;;;4997357;28;20121;-86
2023/12/08 00:10:09;;;;;;;30.70;16.45;;;0.90;99.90;;;;;;4983064;28;20049;-85
2023/12/08 00:12:34;;;;;;;37.70;17.20;;;0.90;99.90;;;;;;4977432;28;20177;-86
2023/12/08 00:15:00;;;;;;;30.73;15.90;;;0.90;99.90;;;;;;4977084;28;20121;-84
2023/12/08 00:17:27;;;;;;;36.60;16.60;;;2.00;99.90;;;;;;4995970;28;20042;-85
2023/12/08 00:19:53;;;;;;;30.85;16.80;;;1.20;99.90;;;;;;4987576;28;20117;-86
2023/12/08 00:22:19;;;;;;;30.95;16.85;;;2.00;99.90;;;;;;4978777;28;20215;-86
2023/12/08 00:24:44;;;;;;;29.75;16.90;;;0.90;99.90;;;;;;4979236;28;20043;-86
2023/12/08 00:27:10;;;;;;;27.90;15.27;;;1.00;99.90;;;;;;4994140;28;20046;-85
2023/12/08 00:29:36;;;;;;;35.03;16.70;;;0.90;99.90;;;;;;4973503;28;20109;-86
2023/12/08 00:32:01;;;;;;;33.40;16.80;;;1.00;99.90;;;;;;4978354;28;20113;-85
2023/12/08 00:34:27;;;;;;;28.73;16.25;;;0.40;99.90;;;;;;4949809;28;20038;-86
2023/12/08 00:36:53;;;;;;;32.55;16.00;;;1.90;99.90;;;;;;4992250;28;20118;-85
2023/12/08 00:39:18;;;;;;;28.60;15.35;;;0.90;99.90;;;;;;4995426;28;20045;-85
2023/12/08 00:41:44;;;;;;;30.15;16.20;;;0.40;99.90;;;;;;4981790;28;20049;-86
2023/12/08 00:44:11;;;;;;;33.15;16.40;;;0.80;99.90;;;;;;4997883;28;20071;-84
2023/12/08 00:46:36;;;;;;;28.13;15.90;;;0.90;99.90;;;;;;4998047;28;20053;-83
2023/12/08 00:49:02;;;;;;;30.58;16.65;;;1.30;99.90;;;;;;4998813;28;20475;-85
2023/12/08 00:51:28;;;;;;;29.70;15.75;;;1.10;99.90;;;;;;5012247;28;20140;-86
2023/12/08 00:53:53;;;;;;;26.10;14.57;;;1.40;99.90;;;;;;5013795;28;20049;-85
2023/12/08 00:56:19;;;;;;;26.40;15.18;;;1.70;99.90;;;;;;4996484;28;20045;-85
2023/12/08 00:58:45;;;;;;;28.77;16.33;;;1.30;99.90;;;;;;4991756;28;20404;-84
2023/12/08 01:01:11;;;;;;;31.33;15.60;;;0.70;99.90;;;;;;5014857;28;20045;-84
2023/12/08 01:03:36;;;;;;;28.73;16.17;;;0.90;99.90;;;;;;5006752;28;20042;-84
2023/12/08 01:06:02;;;;;;;28.05;15.93;;;1.70;99.90;;;;;;5005868;28;20038;-84
2023/12/08 01:08:28;;;;;;;31.52;14.93;;;0.80;99.90;;;;;;4978253;28;20411;-85
2023/12/08 01:10:53;;;;;;;26.77;15.82;;;0.70;99.90;;;;;;4997285;28;20077;-84
2023/12/08 01:13:19;;;;;;;27.58;14.93;;;0.80;99.90;;;;;;4963350;28;20046;-85
2023/12/08 01:15:45;;;;;;;28.83;15.10;;;1.00;99.90;;;;;;4995382;28;20491;-85
2023/12/08 01:18:11;;;;;;;28.95;14.48;;;1.60;99.90;;;;;;4995260;28;20042;-85
2023/12/08 01:20:37;;;;;;;33.58;16.77;;;0.90;99.90;;;;;;4998689;28;20030;-84
2023/12/08 01:23:02;;;;;;;28.20;15.82;;;0.70;99.90;;;;;;4997290;28;20037;-84
2023/12/08 01:25:28;;;;;;;30.33;15.25;;;1.30;99.90;;;;;;5009299;28;20042;-85
2023/12/08 01:27:55;;;;;;;29.23;15.95;;;0.80;99.90;;;;;;4977905;28;20039;-84
2023/12/08 01:30:21;;;;;;;30.23;16.02;;;1.40;99.90;;;;;;4978067;28;20458;-85
2023/12/08 01:32:46;;;;;;;28.33;15.35;;;0.80;99.90;;;;;;5009881;28;20117;-84
2023/12/08 01:35:12;;;;;;;26.52;15.05;;;0.60;99.90;;;;;;4996973;28;20486;-84
2023/12/08 01:37:38;;;;;;;29.67;16.23;;;0.80;99.90;;;;;;5013549;28;20058;-84
2023/12/08 01:40:06;;;;;;;29.08;14.00;;;0.80;99.90;;;;;;4989884;28;20081;-85
2023/12/08 01:42:32;;;;;;;29.58;16.50;;;0.70;99.90;;;;;;4996696;28;20128;-85
2023/12/08 01:44:58;;;;;;;29.17;15.25;;;0.80;99.90;;;;;;5010548;28;20082;-84
2023/12/08 01:47:24;;;;;;;31.88;16.40;;;1.30;99.90;;;;;;5014382;28;20042;-85
2023/12/08 01:49:51;;;;;;;30.42;17.40;;;1.40;99.90;;;;;;5014227;28;20046;-84
2023/12/08 01:52:22;;;;;;;30.30;16.35;;;1.40;99.90;;;;;;4996359;28;20042;-84
2023/12/08 01:54:50;;;;;;;33.85;16.40;;;0.80;99.90;;;;;;5001590;28;20081;-85
2023/12/08 01:57:16;;;;;;;30.75;17.00;;;0.80;99.90;;;;;;4984576;28;20061;-84
2023/12/08 01:59:42;;;;;;;32.15;16.85;;;0.80;99.90;;;;;;4960824;28;20050;-84
2023/12/08 02:02:08;;;;;;;32.00;17.40;;;0.90;99.90;;;;;;4976782;28;20050;-85
2023/12/08 02:04:34;;;;;;;32.05;17.15;;;1.70;99.90;;;;;;4989748;28;20049;-85
2023/12/08 02:07:00;;;;;;;27.20;15.40;;;0.90;99.90;;;;;;4990768;28;20048;-86
2023/12/08 02:09:25;;;;;;;32.72;17.60;;;1.50;99.90;;;;;;5012289;28;20468;-84
2023/12/08 02:11:51;;;;;;;30.77;16.40;;;1.40;99.90;;;;;;5013952;28;20045;-84
2023/12/08 02:14:17;;;;;;;31.20;17.13;;;0.80;99.90;;;;;;4971030;28;20545;-85
2023/12/08 02:16:53;;;;;;;32.22;16.77;;;1.70;99.90;;;;;;5000523;28;20112;-86
2023/12/08 02:19:20;;;;;;;30.95;16.65;;;0.90;99.90;;;;;;4996091;28;20088;-86
2023/12/08 02:21:46;;;;;;;28.05;15.77;;;1.40;99.90;;;;;;4996006;28;20045;-85
2023/12/08 02:24:12;;;;;;;31.92;17.33;;;0.90;99.90;;;;;;5013880;28;20053;-86
2023/12/08 02:26:39;;;;;;;28.35;15.50;;;1.20;99.90;;;;;;4997084;28;20096;-86
2023/12/08 02:29:09;;;;;;;30.40;15.75;;;0.90;99.90;;;;;;4994870;28;20046;-85
2023/12/08 02:31:48;;;;;;;33.00;17.58;;;1.90;99.90;;;;;;4971508;28;20053;-85
2023/12/08 02:34:17;;;;;;;30.35;16.70;;;1.30;99.90;;;;;;5012757;28;20497;-85
2023/12/08 02:36:46;;;;;;;30.25;16.35;;;1.50;99.90;;;;;;5013317;28;20382;-85
2023/12/08 02:39:14;;;;;;;26.98;16.05;;;1.90;99.90;;;;;;5004352;28;20396;-86
2023/12/08 02:41:41;;;;;;;36.70;17.02;;;0.80;99.90;;;;;;4976305;28;20046;-87
2023/12/08 02:44:07;;;;;;;30.55;16.38;;;0.90;99.90;;;;;;4985791;28;20046;-85
2023/12/08 02:46:33;;;;;;;33.13;16.73;;;1.80;99.90;;;;;;5032868;28;20045;-86
2023/12/08 02:48:58;;;;;;;29.58;16.88;;;0.90;99.90;;;;;;4999819;28;20045;-85
2023/12/08 02:51:24;;;;;;;28.15;15.68;;;0.30;99.90;;;;;;5010485;28;20071;-85
2023/12/08 02:53:50;;;;;;;28.70;15.98;;;1.40;99.90;;;;;;5003705;28;20052;-86
2023/12/08 02:56:15;;;;;;;28.95;16.10;;;1.00;99.90;;;;;;5032792;28;20045;-85
2023/12/08 02:58:41;;;;;;;28.85;15.98;;;2.10;99.90;;;;;;5032872;28;20137;-85
2023/12/08 03:01:07;;;;;;;28.20;15.85;;;0.90;99.90;;;;;;5013495;28;20073;-87
2023/12/08 03:03:32;;;;;;;29.52;15.88;;;1.10;99.90;;;;;;5015087;28;20477;-85
2023/12/08 03:05:58;;;;;;;27.10;15.30;;;1.60;99.90;;;;;;5028720;28;20037;-85
2023/12/08 03:08:23;;;;;;;27.33;15.43;;;1.50;99.90;;;;;;5013039;28;20113;-86
2023/12/08 03:10:49;;;;;;;28.05;16.38;;;1.30;99.90;;;;;;4995501;28;20409;-85
2023/12/08 03:13:15;;;;;;;27.95;16.33;;;0.90;99.90;;;;;;4980155;28;20148;-86
2023/12/08 03:15:40;;;;;;;29.70;16.33;;;2.50;99.90;;;;;;5013002;28;20656;-85
2023/12/08 03:18:06;;;;;;;28.67;15.57;;;0.80;99.90;;;;;;4995081;28;20060;-85
2023/12/08 03:20:32;;;;;;;32.97;15.98;;;0.80;99.90;;;;;;5011145;28;20032;-85
2023/12/08 03:22:57;;;;;;;29.33;16.10;;;0.80;99.90;;;;;;4996387;28;20046;-85
2023/12/08 03:25:23;;;;;;;27.77;14.57;;;0.80;99.90;;;;;;5012135;28;20041;-85
2023/12/08 03:27:49;;;;;;;26.20;14.50;;;0.70;99.90;;;;;;4995345;28;20052;-85
2023/12/08 03:30:14;;;;;;;29.80;15.88;;;0.80;99.90;;;;;;4999997;28;20550;-85
2023/12/08 03:32:40;;;;;;;28.23;14.82;;;0.80;99.90;;;;;;4975750;28;20039;-85
2023/12/08 03:35:06;;;;;;;25.48;15.32;;;0.80;99.90;;;;;;5014727;28;20040;-87
2023/12/08 03:37:32;;;;;;;30.50;15.88;;;0.80;99.90;;;;;;4998877;28;20099;-85
2023/12/08 03:39:58;;;;;;;26.17;15.57;;;0.70;99.90;;;;;;4999065;28;20049;-85
2023/12/08 03:42:23;;;;;;;26.77;15.05;;;1.10;99.90;;;;;;5016433;28;20049;-87
2023/12/08 03:44:49;;;;;;;27.25;15.30;;;0.90;99.90;;;;;;5017796;28;20038;-85
2023/12/08 03:47:16;;;;;;;27.25;14.82;;;0.80;99.90;;;;;;5014780;28;20367;-86
2023/12/08 03:49:42;;;;;;;26.98;14.80;;;0.20;99.90;;;;;;4998941;28;20050;-86
2023/12/08 03:52:08;;;;;;;26.90;15.20;;;1.00;99.90;;;;;;4999162;28;20045;-86
2023/12/08 03:54:33;;;;;;;27.08;14.38;;;1.40;99.90;;;;;;4999953;28;20057;-86
2023/12/08 03:56:59;;;;;;;24.80;14.15;;;0.70;99.90;;;;;;5016415;28;20093;-85
2023/12/08 03:59:25;;;;;;;24.83;14.35;;;1.20;99.90;;;;;;4992087;28;20105;-87
2023/12/08 04:01:53;;;;;;;27.92;14.15;;;2.00;99.90;;;;;;4963369;28;20052;-85
2023/12/08 04:04:19;;;;;;;25.23;13.88;;;1.50;99.90;;;;;;4984513;28;20056;-86
2023/12/08 04:06:45;;;;;;;26.13;13.38;;;0.90;99.90;;;;;;4996762;28;20049;-87
2023/12/08 04:09:11;;;;;;;26.92;13.43;;;1.50;99.90;;;;;;4998847;28;20077;-88
2023/12/08 04:11:36;;;;;;;21.77;12.45;;;1.60;99.90;;;;;;5016323;28;20049;-86
2023/12/08 04:14:02;;;;;;;26.48;14.40;;;1.00;99.90;;;;;;5016179;28;20038;-86
2023/12/08 04:16:28;;;;;;;25.95;14.02;;;1.40;99.90;;;;;;4983101;28;20104;-86
2023/12/08 04:18:53;;;;;;;23.95;13.80;;;0.90;99.90;;;;;;4982370;28;20050;-88
2023/12/08 04:21:19;;;;;;;24.77;13.93;;;1.90;99.90;;;;;;5008359;28;20050;-88
2023/12/08 04:23:45;;;;;;;20.38;12.10;;;1.60;99.90;;;;;;4996519;28;20438;-85
2023/12/08 04:26:11;;;;;;;24.58;13.05;;;2.30;99.90;;;;;;4987258;28;20698;-86
2023/12/08 04:28:37;;;;;;;20.80;12.73;;;1.60;99.90;;;;;;5015447;28;20044;-86
2023/12/08 04:31:03;;;;;;;29.20;14.57;;;1.50;99.90;;;;;;4981990;28;20601;-86
2023/12/08 04:33:29;;;;;;;23.85;13.07;;;0.90;99.90;;;;;;4989706;28;20364;-86
2023/12/08 04:35:55;;;;;;;26.95;13.88;;;0.90;99.90;;;;;;4978626;28;20058;-85
2023/12/08 04:38:20;;;;;;;24.30;13.55;;;0.90;99.90;;;;;;5006457;28;20541;-86
2023/12/08 04:40:46;;;;;;;21.08;12.88;;;1.50;99.90;;;;;;4985085;28;20042;-86
2023/12/08 04:43:12;;;;;;;23.80;13.38;;;0.90;99.90;;;;;;4959190;28;20102;-86
2023/12/08 04:45:37;;;;;;;24.23;13.30;;;0.90;99.90;;;;;;4959157;28;20130;-85
2023/12/08 04:48:03;;;;;;;23.13;13.45;;;2.70;99.90;;;;;;4970523;28;20042;-85
2023/12/08 04:50:29;;;;;;;24.20;13.77;;;0.80;99.90;;;;;;4962201;28;20043;-87
2023/12/08 04:52:55;;;;;;;25.98;13.73;;;1.70;99.90;;;;;;4995804;28;20046;-85
2023/12/08 04:55:20;;;;;;;22.13;12.70;;;0.70;99.90;;;;;;4962148;28;20104;-86
2023/12/08 04:57:46;;;;;;;26.88;14.45;;;0.80;99.90;;;;;;4963362;28;20402;-86
2023/12/08 05:00:12;;;;;;;25.42;13.73;;;1.60;99.90;;;;;;4962103;28;20057;-85
2023/12/08 05:02:38;;;;;;;25.50;13.90;;;0.70;99.90;;;;;;4995555;28;20047;-85
2023/12/08 05:05:04;;;;;;;26.95;14.57;;;1.50;99.90;;;;;;4978112;28;20134;-84
2023/12/08 05:07:29;;;;;;;25.02;13.75;;;0.70;99.90;;;;;;4977408;28;20046;-86
2023/12/08 05:09:55;;;;;;;25.17;12.98;;;1.00;99.90;;;;;;4996523;28;20114;-85
2023/12/08 05:12:21;;;;;;;26.45;14.63;;;1.30;99.90;;;;;;4978032;28;20046;-85
2023/12/08 05:14:46;;;;;;;24.13;13.65;;;1.60;99.90;;;;;;4994175;28;20038;-85
2023/12/08 05:17:12;;;;;;;26.27;14.30;;;1.00;99.90;;;;;;4995336;28;20046;-86
2023/12/08 05:19:38;;;;;;;26.67;14.48;;;0.60;99.90;;;;;;4995860;28;20038;-85
2023/12/08 05:22:04;;;;;;;28.48;14.05;;;0.60;99.90;;;;;;4999130;28;20054;-85
2023/12/08 05:24:30;;;;;;;24.83;14.13;;;1.40;99.90;;;;;;4995516;28;20046;-87
2023/12/08 05:26:55;;;;;;;25.58;14.57;;;0.60;99.90;;;;;;4995193;28;20050;-84
2023/12/08 05:29:21;;;;;;;26.10;14.10;;;0.50;99.90;;;;;;4961612;28;20403;-85
2023/12/08 05:31:47;;;;;;;29.95;14.27;;;1.50;99.90;;;;;;4992716;28;20524;-85
2023/12/08 05:34:13;;;;;;;27.20;14.70;;;0.60;99.90;;;;;;4996965;28;20034;-85
2023/12/08 05:36:39;;;;;;;28.27;15.20;;;0.30;99.90;;;;;;4983950;28;20447;-85
2023/12/08 05:39:06;;;;;;;30.90;15.18;;;0.80;99.90;;;;;;4989022;28;20058;-85
2023/12/08 05:41:31;;;;;;;30.42;15.13;;;1.20;99.90;;;;;;4991126;28;20466;-85
2023/12/08 05:43:57;;;;;;;28.95;15.50;;;0.80;99.90;;;;;;4994804;28;20236;-85
2023/12/08 05:46:23;;;;;;;27.67;14.82;;;0.10;99.90;;;;;;4992785;28;20054;-85
2023/12/08 05:48:48;;;;;;;24.63;14.18;;;1.80;99.90;;;;;;4993607;28;20487;-85
2023/12/08 05:51:14;;;;;;;27.48;14.13;;;1.10;99.90;;;;;;4977407;28;20073;-86
2023/12/08 05:53:40;;;;;;;27.10;15.07;;;1.20;99.90;;;;;;4995740;28;20086;-86
2023/12/08 05:56:06;;;;;;;28.95;15.25;;;0.50;99.90;;;;;;4993639;28;20410;-85
2023/12/08 05:58:31;;;;;;;32.45;15.40;;;0.50;99.90;;;;;;4993163;28;20042;-86
2023/12/08 06:00:57;;;;;;;26.55;14.75;;;0.50;99.90;;;;;;4992897;28;20046;-85
2023/12/08 06:03:23;;;;;;;26.70;14.95;;;0.90;99.90;;;;;;4993621;28;20051;-85
2023/12/08 06:05:48;;;;;;;31.10;15.93;;;1.00;99.90;;;;;;4994362;28;20038;-87
2023/12/08 06:08:14;;;;;;;29.40;14.95;;;1.00;99.90;;;;;;4977075;28;20136;-85
2023/12/08 06:10:40;;;;;;;30.67;15.57;;;0.50;99.90;;;;;;4977027;28;20081;-86
2023/12/08 06:13:05;;;;;;;29.17;15.25;;;0.50;99.90;;;;;;4995265;28;20038;-85
2023/12/08 06:15:31;;;;;;;27.92;14.68;;;0.40;99.90;;;;;;4980687;28;20141;-86
2023/12/08 06:17:57;;;;;;;29.95;15.05;;;0.40;99.90;;;;;;4974876;28;20397;-85
2023/12/08 06:20:22;;;;;;;30.20;16.15;;;0.20;99.90;;;;;;4973877;28;20049;-85
2023/12/08 06:22:48;;;;;;;28.67;14.80;;;0.70;99.90;;;;;;4982232;28;20525;-85
2023/12/08 06:25:14;;;;;;;25.63;15.18;;;0.50;99.90;;;;;;4975016;28;20046;-85
2023/12/08 06:27:39;;;;;;;29.05;14.45;;;1.40;99.90;;;;;;4994311;28;20050;-86
2023/12/08 06:30:07;;;;;;;26.90;14.45;;;1.00;99.90;;;;;;4992935;28;20034;-87
2023/12/08 06:32:33;;;;;;;29.02;16.45;;;0.40;99.90;;;;;;4976916;28;20110;-88
2023/12/08 06:34:59;;;;;;;29.38;15.20;;;0.30;99.90;;;;;;4992068;28;20137;-85
2023/12/08 06:37:24;;;;;;;31.67;16.15;;;0.20;99.90;;;;;;4973239;28;20106;-86
2023/12/08 06:39:50;;;;;;;27.95;15.45;;;-0.10;99.90;;;;;;4982945;28;20056;-85
2023/12/08 06:42:16;;;;;;;28.77;15.45;;;0.30;99.90;;;;;;4980517;28;20046;-86
2023/12/08 06:44:42;;;;;;;30.10;15.13;;;0.90;99.90;;;;;;5013186;28;20049;-86
2023/12/08 06:47:08;;;;;;;29.48;16.05;;;1.50;99.90;;;;;;4995646;28;20095;-85
2023/12/08 06:49:34;;;;;;;28.98;15.43;;;0.30;99.90;;;;;;4981939;28;20081;-86
2023/12/08 06:51:59;;;;;;;31.75;16.77;;;0.30;99.90;;;;;;4985555;28;20061;-85
2023/12/08 06:54:25;;;;;;;32.25;16.27;;;0.30;99.90;;;;;;5001572;28;20042;-85
2023/12/08 06:56:51;;;;;;;29.55;15.77;;;0.30;99.90;;;;;;5012336;28;20394;-86
2023/12/08 06:59:17;;;;;;;34.70;16.52;;;0.80;99.90;;;;;;5012254;28;20033;-85
2023/12/08 07:01:42;;;;;;;30.08;16.13;;;0.50;99.90;;;;;;5011747;28;20046;-85
2023/12/08 07:04:08;;;;;;;32.20;15.77;;;0.30;99.90;;;;;;4995739;28;20045;-88
2023/12/08 07:06:34;;;;;;;31.13;15.77;;;0.30;99.90;;;;;;4995633;28;20050;-85
2023/12/08 07:09:00;;;;;;;32.05;15.30;;;0.30;99.90;;;;;;4978456;28;20050;-86
2023/12/08 07:11:26;;;;;;;30.00;15.55;;;0.30;99.90;;;;;;4996384;28;20034;-87
2023/12/08 07:13:54;;;;;;;30.33;16.00;;;0.30;99.90;;;;;;4995444;28;20061;-85
2023/12/08 07:16:20;;;;;;;32.63;15.88;;;0.40;99.90;;;;;;4993833;28;20472;-86
2023/12/08 07:18:46;;;;;;;29.30;15.75;;;1.70;99.90;;;;;;4993442;28;20154;-85
2023/12/08 07:21:12;;;;;;;29.23;14.18;;;0.30;99.90;;;;;;5012845;28;20140;-86
2023/12/08 07:23:37;;;;;;;30.95;15.30;;;0.40;99.90;;;;;;4995155;28;20052;-86
2023/12/08 07:26:04;;;;;;;31.05;16.42;;;0.30;99.90;;;;;;4995357;28;20049;-86
2023/12/08 07:28:30;;;;;;;28.98;15.70;;;0.40;99.90;;;;;;5012935;28;20483;-86
2023/12/08 07:30:56;;;;;;;27.98;16.25;;;0.90;99.90;;;;;;4979456;28;20041;-85
2023/12/08 07:33:22;;;;;;;33.50;16.38;;;1.10;99.90;;;;;;4991250;28;20046;-87
2023/12/08 07:35:48;;;;;;;28.70;15.85;;;1.10;99.90;;;;;;4992604;28;20046;-86
2023/12/08 07:38:14;;;;;;;33.92;16.50;;;0.90;99.90;;;;;;5012570;28;20104;-86
2023/12/08 07:40:39;;;;;;;33.33;17.25;;;0.40;99.90;;;;;;4977929;28;20049;-85
2023/12/08 07:43:05;;;;;;;34.97;15.70;;;1.90;99.90;;;;;;5012457;28;20060;-86
2023/12/08 07:45:30;;;;;;;28.70;15.98;;;0.70;99.90;;;;;;4995573;28;20479;-88
2023/12/08 07:47:57;;;;;;;30.75;16.13;;;0.40;99.90;;;;;;5011906;28;20461;-86
2023/12/08 07:50:22;;;;;;;32.33;16.77;;;0.30;99.90;;;;;;4984129;28;20039;-87
2023/12/08 07:52:48;;;;;;;34.03;16.90;;;1.60;99.90;;;;;;5006010;28;20048;-87
2023/12/08 07:55:14;;;;;;;32.13;17.27;;;0.50;99.90;;;;;;5011709;28;20038;-86
2023/12/08 07:57:39;;;;;;;30.52;16.83;;;0.70;99.90;;;;;;4986715;28;20076;-87
2023/12/08 08:00:06;;;;;;;32.60;17.10;;;0.30;99.90;;;;;;4996538;28;20442;-87
2023/12/08 08:02:32;;;;;;;35.80;17.60;;;0.30;99.90;;;;;;5012503;28;20046;-85
2023/12/08 08:04:58;;;;;;;31.00;17.30;;;0.30;99.90;;;;;;4995316;28;20188;-86
2023/12/08 08:07:24;;;;;;;36.45;17.55;;;1.10;99.90;;;;;;4992891;28;20038;-86
2023/12/08 08:09:50;;;;;;;35.65;18.88;;;1.40;99.90;;;;;;5005499;28;20039;-86
2023/12/08 08:12:16;;;;;;;34.17;19.30;;;1.30;99.90;;;;;;4984256;28;20403;-86
2023/12/08 08:14:42;;;;;;;33.38;17.60;;;0.30;99.90;;;;;;4990395;28;20407;-85
2023/12/08 08:17:10;;;;;;;31.33;16.98;;;1.90;99.90;;;;;;4990048;28;20056;-88
2023/12/08 08:19:36;;;;;;;31.67;16.30;;;0.40;99.90;;;;;;4976866;28;20096;-86
2023/12/08 08:22:02;;;;;;;33.60;17.60;;;0.40;99.90;;;;;;4996554;28;20431;-88
2023/12/08 08:24:27;;;;;;;32.30;17.50;;;0.40;99.90;;;;;;4994444;28;20042;-86
2023/12/08 08:26:54;;;;;;;33.40;16.83;;;0.50;99.90;;;;;;5014368;28;20049;-84
2023/12/08 08:29:20;;;;;;;35.13;17.85;;;0.40;99.90;;;;;;5006253;28;20108;-87
2023/12/08 08:31:45;;;;;;;33.55;17.38;;;1.40;99.90;;;;;;4998103;28;20046;-85
2023/12/08 08:34:11;;;;;;;32.58;17.30;;;0.40;99.90;;;;;;5015730;28;20042;-86
2023/12/08 08:36:37;;;;;;;32.65;18.00;;;0.40;99.90;;;;;;4981713;28;20045;-88
2023/12/08 08:39:03;;;;;;;36.78;17.38;;;0.40;99.90;;;;;;4979104;28;20050;-84
2023/12/08 08:41:29;;;;;;;33.70;18.05;;;0.30;99.90;;;;;;4978335;28;20061;-86
2023/12/08 08:43:55;;;;;;;33.92;17.65;;;0.40;99.90;;;;;;4996135;28;20054;-85
2023/12/08 08:46:21;;;;;;;31.70;16.40;;;0.40;99.90;;;;;;5002332;28;20407;-84
2023/12/08 08:48:46;;;;;;;28.42;16.25;;;1.10;99.90;;;;;;4998246;28;20038;-85
2023/12/08 08:51:14;;;;;;;31.13;16.80;;;0.40;99.90;;;;;;4993422;28;20391;-86
2023/12/08 08:53:40;;;;;;;35.10;17.67;;;1.00;99.90;;;;;;4980239;28;20050;-86
2023/12/08 08:56:06;;;;;;;31.30;17.20;;;1.60;99.90;;;;;;4978378;28;20050;-85
2023/12/08 08:58:32;;;;;;;30.30;15.80;;;0.50;99.90;;;;;;4978362;28;20117;-85
2023/12/08 09:00:58;;;;;;;34.90;17.98;;;0.50;99.90;;;;;;5008744;28;21176;-87
2023/12/08 09:03:23;;;;;;;35.83;18.25;;;0.90;99.90;;;;;;5003403;28;20128;-86
2023/12/08 09:05:49;;;;;;;36.38;18.83;;;0.50;99.90;;;;;;5015273;28;20041;-85
2023/12/08 09:08:15;;;;;;;33.15;18.67;;;1.30;99.90;;;;;;5012365;28;20438;-84
2023/12/08 09:10:45;;;;;;;32.58;17.73;;;0.50;99.90;;;;;;5030126;28;20054;-88
2023/12/08 09:13:14;;;;;;;34.65;17.10;;;0.70;99.90;;;;;;4997886;28;20038;-85
2023/12/08 09:15:40;;;;;;;38.80;18.58;;;0.60;99.90;;;;;;5007917;28;20095;-85
2023/12/08 09:18:06;;;;;;;32.92;17.63;;;0.50;99.90;;;;;;5014986;28;20046;-87
2023/12/08 09:20:32;;;;;;;35.95;18.35;;;0.90;99.90;;;;;;4996959;28;20176;-85
2023/12/08 09:22:57;;;;;;;38.95;19.15;;;0.10;99.90;;;;;;5013161;28;20042;-84
2023/12/08 09:25:23;;;;;;;37.42;18.45;;;0.50;99.90;;;;;;4997318;28;20192;-84
2023/12/08 09:27:49;;;;;;;39.22;19.50;;;1.30;99.90;;;;;;4981244;28;20054;-84
2023/12/08 09:30:17;;;;;;;37.88;18.95;;;1.30;99.90;;;;;;5014269;28;20133;-85
2023/12/08 09:32:43;;;;;;;36.17;19.63;;;1.40;99.90;;;;;;4996337;28;20196;-86
2023/12/08 09:35:09;;;;;;;39.03;19.65;;;-0.10;99.90;;;;;;4981278;28;20053;-86
2023/12/08 09:37:35;;;;;;;39.13;19.50;;;0.60;99.90;;;;;;5005557;28;20053;-84
2023/12/08 09:40:01;;;;;;;34.00;17.58;;;1.10;99.90;;;;;;4981205;28;20050;-88
2023/12/08 09:42:42;;;;;;;35.47;18.20;;;0.60;99.90;;;;;;4977509;28;20076;-89
2023/12/08 09:45:11;;;;;;;32.30;18.55;;;0.60;99.90;;;;;;4994478;28;20507;-89
2023/12/08 09:47:39;;;;;;;33.42;17.40;;;0.60;99.90;;;;;;4995275;28;20046;-87
2023/12/08 09:50:14;;;;;;;32.85;17.52;;;0.70;99.90;;;;;;5001770;28;20037;-88
2023/12/08 09:52:40;;;;;;;32.65;16.55;;;0.70;99.90;;;;;;4996546;28;20066;-88
2023/12/08 09:55:07;;;;;;;32.67;16.48;;;0.70;99.90;;;;;;4995545;28;20100;-85
2023/12/08 09:57:34;;;;;;;36.30;17.80;;;0.70;99.90;;;;;;4965969;28;20136;-90
2023/12/08 10:00:12;;;;;;;34.53;17.23;;;0.70;99.90;;;;;;4990865;28;20398;-87
2023/12/08 10:02:38;;;;;;;30.08;16.80;;;1.70;99.90;;;;;;5008040;28;20118;-87
2023/12/08 10:05:04;;;;;;;31.45;16.90;;;1.60;99.90;;;;;;5014132;28;20129;-87
2023/12/08 10:07:33;;;;;;;31.60;18.40;;;0.70;99.90;;;;;;5013914;28;20038;-88
2023/12/08 10:10:02;;;;;;;32.65;18.17;;;0.70;99.90;;;;;;5012940;28;20081;-88
2023/12/08 10:12:29;;;;;;;36.22;17.92;;;0.80;99.90;;;;;;5010316;28;20046;-87
2023/12/08 10:14:56;;;;;;;31.15;16.85;;;0.80;99.90;;;;;;5013974;28;20129;-86
2023/12/08 10:17:23;;;;;;;35.72;17.38;;;0.80;99.90;;;;;;4996373;28;20390;-85
2023/12/08 10:19:51;;;;;;;32.80;17.10;;;1.40;99.90;;;;;;5007752;28;20042;-86
2023/12/08 10:22:17;;;;;;;35.88;16.40;;;0.80;99.90;;;;;;4978946;28;20045;-87
2023/12/08 10:24:43;;;;;;;30.80;16.58;;;0.80;99.90;;;;;;4991867;28;20050;-88
2023/12/08 10:27:09;;;;;;;37.72;18.20;;;1.50;99.90;;;;;;4968983;28;20054;-87
2023/12/08 10:29:35;;;;;;;32.60;17.25;;;0.80;99.90;;;;;;5004651;28;20050;-85
2023/12/08 10:32:04;;;;;;;31.50;16.98;;;0.70;99.90;;;;;;5011896;28;20091;-86
2023/12/08 10:34:30;;;;;;;31.52;16.88;;;2.10;99.90;;;;;;5011735;28;20129;-84
2023/12/08 10:36:56;;;;;;;30.95;17.08;;;0.80;99.90;;;;;;5007349;28;20040;-90
2023/12/08 10:39:23;;;;;;;31.58;16.40;;;0.90;99.90;;;;;;5006785;28;20053;-87
2023/12/08 10:41:51;;;;;;;33.58;16.63;;;1.40;99.90;;;;;;5002535;28;20126;-86
2023/12/08 10:44:25;;;;;;;34.17;17.48;;;0.80;99.90;;;;;;4993324;28;20041;-87
2023/12/08 10:46:51;;;;;;;34.37;18.17;;;0.80;99.90;;;;;;4993862;28;20522;-87
2023/12/08 10:49:21;;;;;;;31.60;16.75;;;0.90;99.90;;;;;;4984901;28;20041;-86
2023/12/08 10:51:48;;;;;;;35.28;17.45;;;1.00;99.90;;;;;;4979557;28;20049;-87
2023/12/08 10:54:16;;;;;;;33.50;17.35;;;1.40;99.90;;;;;;4990422;28;20399;-86
2023/12/08 10:56:46;;;;;;;30.55;16.33;;;1.20;99.90;;;;;;4960513;28;20840;-88
2023/12/08 10:59:18;;;;;;;32.00;17.52;;;1.00;99.90;;;;;;4976880;28;20069;-89
2023/12/08 11:01:44;;;;;;;32.88;17.42;;;1.00;99.90;;;;;;5000749;28;20473;-87
2023/12/08 11:04:15;;;;;;;33.22;17.08;;;1.00;99.90;;;;;;5011404;28;20124;-87
2023/12/08 11:07:05;;;;;;;34.15;18.50;;;1.00;99.90;;;;;;4995225;28;20049;-87
2023/12/08 11:09:35;;;;;;;31.90;16.75;;;1.90;99.90;;;;;;5012393;28;20046;-86
2023/12/08 11:12:03;;;;;;;35.22;17.65;;;1.50;99.90;;;;;;5005360;28;20073;-86
2023/12/08 11:14:47;;;;;;;31.10;16.63;;;0.70;99.90;;;;;;4982583;28;20105;-86
2023/12/08 11:17:40;;;;;;;31.38;17.45;;;1.00;99.90;;;;;;4995499;28;20049;-86
2023/12/08 11:20:09;;;;;;;33.08;17.17;;;1.10;99.90;;;;;;4995172;28;20533;-87
2023/12/08 11:22:35;;;;;;;34.33;18.33;;;1.10;99.90;;;;;;5012943;28;20050;-86
2023/12/08 11:25:09;;;;;;;33.80;16.70;;;1.00;99.90;;;;;;4994970;28;20490;-85
2023/12/08 11:27:57;;;;;;;33.80;17.45;;;1.10;99.90;;;;;;4977611;28;20049;-86
2023/12/08 11:30:32;;;;;;;33.80;17.25;;;1.10;99.90;;;;;;4959694;28;20045;-86
2023/12/08 11:33:26;;;;;;;35.95;17.77;;;2.00;99.90;;;;;;4975732;28;20096;-86
2023/12/08 11:35:52;;;;;;;32.80;17.38;;;1.20;99.90;;;;;;4959361;28;20042;-86
2023/12/08 11:38:30;;;;;;;34.58;17.63;;;2.40;99.90;;;;;;4959638;28;20065;-87
2023/12/08 11:40:56;;;;;;;32.83;17.85;;;1.10;99.90;;;;;;4988416;28;20054;-88
2023/12/08 11:43:23;;;;;;;32.22;17.52;;;1.90;99.90;;;;;;4994995;28;20392;-88
2023/12/08 11:45:49;;;;;;;35.67;18.15;;;1.30;99.90;;;;;;4979013;28;20126;-87
2023/12/08 11:48:15;;;;;;;37.85;19.38;;;1.20;99.90;;;;;;4994684;28;20129;-87
2023/12/08 11:50:41;;;;;;;39.53;19.52;;;2.00;99.90;;;;;;5012837;28;20456;-88
2023/12/08 11:53:07;;;;;;;35.70;18.27;;;0.90;99.90;;;;;;4996807;28;20120;-87
2023/12/08 11:55:33;;;;;;;34.80;18.42;;;1.70;99.90;;;;;;5014096;28;20045;-87
2023/12/08 11:58:01;;;;;;;37.90;19.15;;;1.70;99.90;;;;;;4979643;28;20384;-88
2023/12/08 12:00:28;;;;;;;42.05;19.30;;;1.20;99.90;;;;;;4974185;28;20458;-87
2023/12/08 12:02:55;;;;;;;38.45;19.52;;;1.30;99.90;;;;;;5012381;28;20399;-87
2023/12/08 12:05:21;;;;;;;36.33;19.30;;;2.00;99.90;;;;;;5016584;28;20053;-88
2023/12/08 12:07:54;;;;;;;42.53;20.65;;;1.30;99.90;;;;;;5000833;28;20046;-87
2023/12/08 12:10:32;;;;;;;38.35;19.10;;;1.30;99.90;;;;;;4982169;28;20053;-86
2023/12/08 12:13:12;;;;;;;37.08;20.08;;;0.60;99.90;;;;;;5017140;28;20502;-87
2023/12/08 12:15:38;;;;;;;40.80;19.30;;;1.30;99.90;;;;;;4988258;28;20050;-89
2023/12/08 12:18:04;;;;;;;36.75;17.52;;;1.90;99.90;;;;;;4982981;28;20054;-86
2023/12/08 12:20:34;;;;;;;42.78;20.48;;;1.30;99.90;;;;;;5002352;28;20085;-89
2023/12/08 12:23:00;;;;;;;46.08;21.90;;;2.10;99.90;;;;;;5016326;28;20085;-89
2023/12/08 12:25:26;;;;;;;44.13;21.33;;;2.80;99.90;;;;;;5015067;28;20129;-86
2023/12/08 12:27:54;;;;;;;46.72;19.85;;;1.40;99.90;;;;;;5014999;28;20516;-88
2023/12/08 12:30:20;;;;;;;51.97;20.95;;;1.50;99.90;;;;;;5014730;28;20048;-87
2023/12/08 12:32:48;;;;;;;46.50;20.95;;;2.30;99.90;;;;;;4997778;28;20037;-87